Airfield :
LOGIN :

Register | Disclaimer

   EN    FR    IT 

 










Legend :    VFR   Marginal VFR   IFR   Intensive IFR   Very Intensive IFR
Visi :
Ceiling :
>= 8 km
>= 3000ft
5 to 8 km
1000 to 3000 ft
1500m to 5 km
500 to 1000 ft
800 to 1500m
200 to 500 ft
< 800m
< 200 ft
Symbols :   Thunderstorms  Fog  Heavy snow  Heavy precipitations  Wind > 20 kt
SIGMETs :     Misc.  Thunderstorms  Icing  Turbulence  Mountain Waves  Volcanic Ashes






- Airport Elevation : 645 ft
- IATA code : DLE


LFGJ - Dole Tavaux

CURRENT METAR :
  • 011230Z AUTO 03011KT 9999 OVC036 06/02 Q1021 NOSIG

EXPIRED METARs :
  • 011200Z AUTO 02013KT 9999 FEW025 OVC037 07/02 Q1021 NOSIG
  • 011130Z AUTO 03013KT 9999 FEW022 OVC039 07/03 Q1021 NOSIG
  • 011100Z AUTO 03013KT 9999 FEW022 OVC041 07/03 Q1021 NOSIG
  • 011030Z AUTO 03011KT 9999 SCT020 OVC042 07/03 Q1021 NOSIG
  • 011000Z AUTO 02010KT 9999 FEW019 OVC043 07/03 Q1021 TEMPO BKN014

TAF TAF LFGJ
Valid from the 01 at 12:00 until the 01 at 21:00 UTC


011100Z 0112/0121 02012KT 9999 FEW020 BKN035



MET'MAP, your aeronautical weather chart ! - Copyright ORBIFLY December 2007 - Disclaimer

ORBIFLY MET'MAP TEAM :

Programming & Development : Alexandra Zaïnal
Original concept : Baudouin d'Aumeries
Technical & hardware support : Manuel Goepfert
Assistance : Marc-Olivier Méhu




SOURCES & CREDITS :

   NOAA